Terminal Aerodrome Forecast
Issued by NWS

Home | Current Version | Previous Version | Text Only | Print | Product List | Glossary On
Versions: 1 2 3 4 5 6 7 8 9 10 11 12 13
210
FTUS43 KILX 072325
TAFCMI
TAF
KCMI 072325Z 0800/0824 27011KT P6SM SCT025 BKN050
     FM081000 28012KT P6SM VCSH OVC020
     FM081400 29016G24KT 3SM -SN BR OVC012=

USA.gov is the U.S. government's official web portal to all federal, state and local government web resources and services.